sensor_id;sensor_type;location;lat;lon;timestamp;temperature;humidity
14908;DHT22;7545;52.092;7.006;2022-10-31T00:00:45;16.00;99.90
14908;DHT22;7545;52.092;7.006;2022-10-31T00:03:11;16.00;99.90
14908;DHT22;7545;52.092;7.006;2022-10-31T00:05:41;15.90;99.90
14908;DHT22;7545;52.092;7.006;2022-10-31T00:08:07;15.90;99.90
14908;DHT22;7545;52.092;7.006;2022-10-31T00:10:32;15.90;99.90
14908;DHT22;7545;52.092;7.006;2022-10-31T00:12:58;15.90;99.90
14908;DHT22;7545;52.092;7.006;2022-10-31T00:15:23;15.80;99.90
14908;DHT22;7545;52.092;7.006;2022-10-31T00:17:49;15.80;99.90
14908;DHT22;7545;52.092;7.006;2022-10-31T00:20:14;15.80;99.90
14908;DHT22;7545;52.092;7.006;2022-10-31T00:22:40;15.80;99.90
14908;DHT22;7545;52.092;7.006;2022-10-31T00:25:06;15.70;99.90
14908;DHT22;7545;52.092;7.006;2022-10-31T00:27:31;15.70;99.90
14908;DHT22;7545;52.092;7.006;2022-10-31T00:29:57;15.70;99.90
14908;DHT22;7545;52.092;7.006;2022-10-31T00:32:22;15.70;99.90
14908;DHT22;7545;52.092;7.006;2022-10-31T00:34:48;15.70;99.90
14908;DHT22;7545;52.092;7.006;2022-10-31T00:37:14;15.60;99.90
14908;DHT22;7545;52.092;7.006;2022-10-31T00:39:39;15.60;99.90
14908;DHT22;7545;52.092;7.006;2022-10-31T00:42:05;15.60;99.90
14908;DHT22;7545;52.092;7.006;2022-10-31T00:44:30;15.50;99.90
14908;DHT22;7545;52.092;7.006;2022-10-31T00:46:56;15.50;99.90
14908;DHT22;7545;52.092;7.006;2022-10-31T00:49:21;15.50;99.90
14908;DHT22;7545;52.092;7.006;2022-10-31T00:51:47;15.50;99.90
14908;DHT22;7545;52.092;7.006;2022-10-31T00:54:13;15.40;99.90
14908;DHT22;7545;52.092;7.006;2022-10-31T00:56:38;15.40;99.90
14908;DHT22;7545;52.092;7.006;2022-10-31T00:59:04;15.40;99.90
14908;DHT22;7545;52.092;7.006;2022-10-31T01:01:29;15.30;99.90
14908;DHT22;7545;52.092;7.006;2022-10-31T01:03:55;15.30;99.90
14908;DHT22;7545;52.092;7.006;2022-10-31T01:06:20;15.30;99.90
14908;DHT22;7545;52.092;7.006;2022-10-31T01:08:47;15.30;99.90
14908;DHT22;7545;52.092;7.006;2022-10-31T01:11:16;15.20;99.90
14908;DHT22;7545;52.092;7.006;2022-10-31T01:13:42;15.20;99.90
14908;DHT22;7545;52.092;7.006;2022-10-31T01:16:11;15.20;99.90
14908;DHT22;7545;52.092;7.006;2022-10-31T01:18:36;15.10;99.90
14908;DHT22;7545;52.092;7.006;2022-10-31T01:21:07;15.10;99.90
14908;DHT22;7545;52.092;7.006;2022-10-31T01:23:33;15.10;99.90
14908;DHT22;7545;52.092;7.006;2022-10-31T01:26:23;15.10;99.90
14908;DHT22;7545;52.092;7.006;2022-10-31T01:28:51;15.10;99.90
14908;DHT22;7545;52.092;7.006;2022-10-31T01:31:18;15.10;99.90
14908;DHT22;7545;52.092;7.006;2022-10-31T01:33:44;15.00;99.90
14908;DHT22;7545;52.092;7.006;2022-10-31T01:38:41;15.00;99.90
14908;DHT22;7545;52.092;7.006;2022-10-31T01:41:11;15.00;99.90
14908;DHT22;7545;52.092;7.006;2022-10-31T01:43:54;15.00;99.90
14908;DHT22;7545;52.092;7.006;2022-10-31T01:49:15;14.90;99.90
14908;DHT22;7545;52.092;7.006;2022-10-31T01:51:47;14.80;99.90
14908;DHT22;7545;52.092;7.006;2022-10-31T01:54:15;14.90;99.90
14908;DHT22;7545;52.092;7.006;2022-10-31T01:56:48;14.80;99.90
14908;DHT22;7545;52.092;7.006;2022-10-31T01:59:18;14.80;99.90
14908;DHT22;7545;52.092;7.006;2022-10-31T02:01:45;14.80;99.90
14908;DHT22;7545;52.092;7.006;2022-10-31T02:04:11;14.80;99.90
14908;DHT22;7545;52.092;7.006;2022-10-31T02:06:38;14.70;99.90
14908;DHT22;7545;52.092;7.006;2022-10-31T02:09:05;14.70;99.90
14908;DHT22;7545;52.092;7.006;2022-10-31T02:11:31;14.70;99.90
14908;DHT22;7545;52.092;7.006;2022-10-31T02:13:59;14.60;99.90
14908;DHT22;7545;52.092;7.006;2022-10-31T02:16:26;14.60;99.90
14908;DHT22;7545;52.092;7.006;2022-10-31T02:18:51;14.60;99.90
14908;DHT22;7545;52.092;7.006;2022-10-31T02:24:12;14.60;99.90
14908;DHT22;7545;52.092;7.006;2022-10-31T02:38:29;14.40;99.90
14908;DHT22;7545;52.092;7.006;2022-10-31T02:42:02;14.40;99.90
14908;DHT22;7545;52.092;7.006;2022-10-31T02:44:08;14.40;99.90
14908;DHT22;7545;52.092;7.006;2022-10-31T02:49:26;14.40;99.90
14908;DHT22;7545;52.092;7.006;2022-10-31T02:51:53;14.40;99.90
14908;DHT22;7545;52.092;7.006;2022-10-31T02:54:24;14.30;99.90
14908;DHT22;7545;52.092;7.006;2022-10-31T02:56:54;14.30;99.90
14908;DHT22;7545;52.092;7.006;2022-10-31T02:59:23;14.30;99.90
14908;DHT22;7545;52.092;7.006;2022-10-31T03:02:13;14.30;99.90
14908;DHT22;7545;52.092;7.006;2022-10-31T03:15:44;14.30;99.90
14908;DHT22;7545;52.092;7.006;2022-10-31T03:20:59;14.30;99.90
14908;DHT22;7545;52.092;7.006;2022-10-31T03:23:28;14.30;99.90
14908;DHT22;7545;52.092;7.006;2022-10-31T03:25:55;14.30;99.90
14908;DHT22;7545;52.092;7.006;2022-10-31T03:28:27;14.30;99.90
14908;DHT22;7545;52.092;7.006;2022-10-31T03:30:54;14.20;99.90
14908;DHT22;7545;52.092;7.006;2022-10-31T03:33:26;14.30;99.90
14908;DHT22;7545;52.092;7.006;2022-10-31T03:35:54;14.20;99.90
14908;DHT22;7545;52.092;7.006;2022-10-31T03:38:21;14.20;99.90
14908;DHT22;7545;52.092;7.006;2022-10-31T03:40:49;14.30;99.90
14908;DHT22;7545;52.092;7.006;2022-10-31T03:43:26;14.20;99.90
14908;DHT22;7545;52.092;7.006;2022-10-31T03:45:54;14.20;99.90
14908;DHT22;7545;52.092;7.006;2022-10-31T03:48:21;14.20;99.90
14908;DHT22;7545;52.092;7.006;2022-10-31T03:53:37;14.20;99.90
14908;DHT22;7545;52.092;7.006;2022-10-31T03:59:04;14.20;99.90
14908;DHT22;7545;52.092;7.006;2022-10-31T04:01:34;14.20;99.90
14908;DHT22;7545;52.092;7.006;2022-10-31T04:04:02;14.20;99.90
14908;DHT22;7545;52.092;7.006;2022-10-31T04:06:28;14.20;99.90
14908;DHT22;7545;52.092;7.006;2022-10-31T04:08:58;14.20;99.90
14908;DHT22;7545;52.092;7.006;2022-10-31T04:11:29;14.20;99.90
14908;DHT22;7545;52.092;7.006;2022-10-31T04:13:57;14.10;99.90
14908;DHT22;7545;52.092;7.006;2022-10-31T04:16:24;14.10;99.90
14908;DHT22;7545;52.092;7.006;2022-10-31T04:18:50;14.10;99.90
14908;DHT22;7545;52.092;7.006;2022-10-31T04:21:16;14.10;99.90
14908;DHT22;7545;52.092;7.006;2022-10-31T04:23:42;14.10;99.90
14908;DHT22;7545;52.092;7.006;2022-10-31T04:26:10;14.00;99.90
14908;DHT22;7545;52.092;7.006;2022-10-31T04:28:37;14.00;99.90
14908;DHT22;7545;52.092;7.006;2022-10-31T04:31:02;14.10;99.90
14908;DHT22;7545;52.092;7.006;2022-10-31T04:33:28;14.00;99.90
14908;DHT22;7545;52.092;7.006;2022-10-31T04:35:53;14.00;99.90
14908;DHT22;7545;52.092;7.006;2022-10-31T04:38:19;13.90;99.90
14908;DHT22;7545;52.092;7.006;2022-10-31T04:40:45;13.90;99.90
14908;DHT22;7545;52.092;7.006;2022-10-31T04:43:11;13.90;99.90
14908;DHT22;7545;52.092;7.006;2022-10-31T04:45:37;13.90;99.90
14908;DHT22;7545;52.092;7.006;2022-10-31T04:48:03;13.90;99.90
14908;DHT22;7545;52.092;7.006;2022-10-31T04:50:29;13.80;99.90
14908;DHT22;7545;52.092;7.006;2022-10-31T04:52:55;13.80;99.90
14908;DHT22;7545;52.092;7.006;2022-10-31T04:55:20;13.80;99.90
14908;DHT22;7545;52.092;7.006;2022-10-31T04:57:47;13.70;99.90
14908;DHT22;7545;52.092;7.006;2022-10-31T05:00:15;13.70;99.90
14908;DHT22;7545;52.092;7.006;2022-10-31T05:02:46;13.70;99.90
14908;DHT22;7545;52.092;7.006;2022-10-31T05:05:18;13.70;99.90
14908;DHT22;7545;52.092;7.006;2022-10-31T05:07:45;13.70;99.90
14908;DHT22;7545;52.092;7.006;2022-10-31T05:10:16;13.70;99.90
14908;DHT22;7545;52.092;7.006;2022-10-31T05:12:53;13.60;99.90
14908;DHT22;7545;52.092;7.006;2022-10-31T05:15:21;13.60;99.90
14908;DHT22;7545;52.092;7.006;2022-10-31T05:17:46;13.60;99.90
14908;DHT22;7545;52.092;7.006;2022-10-31T05:20:13;13.60;99.90
14908;DHT22;7545;52.092;7.006;2022-10-31T05:22:50;13.50;99.90
14908;DHT22;7545;52.092;7.006;2022-10-31T05:25:17;13.50;99.90
14908;DHT22;7545;52.092;7.006;2022-10-31T05:27:45;13.40;99.90
14908;DHT22;7545;52.092;7.006;2022-10-31T05:30:12;13.40;99.90
14908;DHT22;7545;52.092;7.006;2022-10-31T05:32:48;13.40;99.90
14908;DHT22;7545;52.092;7.006;2022-10-31T05:35:26;13.40;99.90
14908;DHT22;7545;52.092;7.006;2022-10-31T05:37:52;13.30;99.90
14908;DHT22;7545;52.092;7.006;2022-10-31T05:40:19;13.30;99.90
14908;DHT22;7545;52.092;7.006;2022-10-31T05:42:46;13.30;99.90
14908;DHT22;7545;52.092;7.006;2022-10-31T05:45:14;13.30;99.90
14908;DHT22;7545;52.092;7.006;2022-10-31T05:47:40;13.30;99.90
14908;DHT22;7545;52.092;7.006;2022-10-31T05:50:09;13.30;99.90
14908;DHT22;7545;52.092;7.006;2022-10-31T05:52:35;13.30;99.90
14908;DHT22;7545;52.092;7.006;2022-10-31T05:55:01;13.20;99.90
14908;DHT22;7545;52.092;7.006;2022-10-31T05:57:28;13.20;99.90
14908;DHT22;7545;52.092;7.006;2022-10-31T05:59:54;13.30;99.90
14908;DHT22;7545;52.092;7.006;2022-10-31T06:02:20;13.20;99.90
14908;DHT22;7545;52.092;7.006;2022-10-31T06:04:45;13.20;99.90
14908;DHT22;7545;52.092;7.006;2022-10-31T06:07:11;13.20;99.90
14908;DHT22;7545;52.092;7.006;2022-10-31T06:09:37;13.20;99.90
14908;DHT22;7545;52.092;7.006;2022-10-31T06:12:05;13.20;99.90
14908;DHT22;7545;52.092;7.006;2022-10-31T06:14:31;13.20;99.90
14908;DHT22;7545;52.092;7.006;2022-10-31T06:16:57;13.10;99.90
14908;DHT22;7545;52.092;7.006;2022-10-31T06:19:22;13.10;99.90
14908;DHT22;7545;52.092;7.006;2022-10-31T06:21:48;13.10;99.90
14908;DHT22;7545;52.092;7.006;2022-10-31T06:24:14;13.10;99.90
14908;DHT22;7545;52.092;7.006;2022-10-31T06:26:40;13.10;99.90
14908;DHT22;7545;52.092;7.006;2022-10-31T06:29:06;13.10;99.90
14908;DHT22;7545;52.092;7.006;2022-10-31T06:31:32;13.10;99.90
14908;DHT22;7545;52.092;7.006;2022-10-31T06:33:57;13.10;99.90
14908;DHT22;7545;52.092;7.006;2022-10-31T06:36:23;13.00;99.90
14908;DHT22;7545;52.092;7.006;2022-10-31T06:38:49;13.00;99.90
14908;DHT22;7545;52.092;7.006;2022-10-31T06:41:14;13.00;99.90
14908;DHT22;7545;52.092;7.006;2022-10-31T06:43:40;13.00;99.90
14908;DHT22;7545;52.092;7.006;2022-10-31T06:46:06;13.00;99.90
14908;DHT22;7545;52.092;7.006;2022-10-31T06:48:31;13.00;99.90
14908;DHT22;7545;52.092;7.006;2022-10-31T06:50:58;12.90;99.90
14908;DHT22;7545;52.092;7.006;2022-10-31T06:53:25;12.90;99.90
14908;DHT22;7545;52.092;7.006;2022-10-31T06:55:51;12.90;99.90
14908;DHT22;7545;52.092;7.006;2022-10-31T06:58:16;12.90;99.90
14908;DHT22;7545;52.092;7.006;2022-10-31T07:00:42;12.90;99.90
14908;DHT22;7545;52.092;7.006;2022-10-31T07:03:12;12.90;99.90
14908;DHT22;7545;52.092;7.006;2022-10-31T07:05:37;12.90;99.90
14908;DHT22;7545;52.092;7.006;2022-10-31T07:08:08;13.00;99.90
14908;DHT22;7545;52.092;7.006;2022-10-31T07:10:35;13.00;99.90
14908;DHT22;7545;52.092;7.006;2022-10-31T07:13:03;13.00;99.90
14908;DHT22;7545;52.092;7.006;2022-10-31T07:15:33;13.00;99.90
14908;DHT22;7545;52.092;7.006;2022-10-31T07:18:08;13.00;99.90
14908;DHT22;7545;52.092;7.006;2022-10-31T07:20:34;13.00;99.90
14908;DHT22;7545;52.092;7.006;2022-10-31T07:22:59;13.10;99.90
14908;DHT22;7545;52.092;7.006;2022-10-31T07:25:26;13.00;99.90
14908;DHT22;7545;52.092;7.006;2022-10-31T07:27:52;13.10;99.90
14908;DHT22;7545;52.092;7.006;2022-10-31T07:30:18;13.10;99.90
14908;DHT22;7545;52.092;7.006;2022-10-31T07:32:49;13.10;99.90
14908;DHT22;7545;52.092;7.006;2022-10-31T07:35:17;13.10;99.90
14908;DHT22;7545;52.092;7.006;2022-10-31T07:37:43;13.10;99.90
14908;DHT22;7545;52.092;7.006;2022-10-31T07:40:09;13.10;99.90
14908;DHT22;7545;52.092;7.006;2022-10-31T07:42:36;13.00;99.90
14908;DHT22;7545;52.092;7.006;2022-10-31T07:45:05;13.10;99.90
14908;DHT22;7545;52.092;7.006;2022-10-31T07:47:41;13.10;99.90
14908;DHT22;7545;52.092;7.006;2022-10-31T07:50:09;13.00;99.90
14908;DHT22;7545;52.092;7.006;2022-10-31T07:52:35;13.10;99.90
14908;DHT22;7545;52.092;7.006;2022-10-31T07:55:00;13.10;99.90
14908;DHT22;7545;52.092;7.006;2022-10-31T07:57:26;13.10;99.90
14908;DHT22;7545;52.092;7.006;2022-10-31T07:59:52;13.10;99.90
14908;DHT22;7545;52.092;7.006;2022-10-31T08:02:18;13.10;99.90
14908;DHT22;7545;52.092;7.006;2022-10-31T08:04:43;13.20;99.90
14908;DHT22;7545;52.092;7.006;2022-10-31T08:07:09;13.20;99.90
14908;DHT22;7545;52.092;7.006;2022-10-31T08:09:34;13.20;99.90
14908;DHT22;7545;52.092;7.006;2022-10-31T08:12:00;13.20;99.90
14908;DHT22;7545;52.092;7.006;2022-10-31T08:14:27;13.20;99.90
14908;DHT22;7545;52.092;7.006;2022-10-31T08:16:53;13.30;99.90
14908;DHT22;7545;52.092;7.006;2022-10-31T08:19:19;13.30;99.90
14908;DHT22;7545;52.092;7.006;2022-10-31T08:21:44;13.30;99.90
14908;DHT22;7545;52.092;7.006;2022-10-31T08:24:10;13.40;99.90
14908;DHT22;7545;52.092;7.006;2022-10-31T08:26:36;13.40;99.90
14908;DHT22;7545;52.092;7.006;2022-10-31T08:29:02;13.50;99.90
14908;DHT22;7545;52.092;7.006;2022-10-31T08:31:28;13.60;99.90
14908;DHT22;7545;52.092;7.006;2022-10-31T08:33:54;13.60;99.90
14908;DHT22;7545;52.092;7.006;2022-10-31T08:36:20;13.70;99.90
14908;DHT22;7545;52.092;7.006;2022-10-31T08:38:47;13.70;99.90
14908;DHT22;7545;52.092;7.006;2022-10-31T08:41:13;13.80;99.90
14908;DHT22;7545;52.092;7.006;2022-10-31T08:43:38;13.80;99.90
14908;DHT22;7545;52.092;7.006;2022-10-31T08:46:04;13.90;99.90
14908;DHT22;7545;52.092;7.006;2022-10-31T08:48:29;13.90;99.90
14908;DHT22;7545;52.092;7.006;2022-10-31T08:50:59;14.00;99.90
14908;DHT22;7545;52.092;7.006;2022-10-31T08:53:25;14.00;99.90
14908;DHT22;7545;52.092;7.006;2022-10-31T08:55:54;14.10;99.90
14908;DHT22;7545;52.092;7.006;2022-10-31T08:58:20;14.10;99.90
14908;DHT22;7545;52.092;7.006;2022-10-31T09:00:48;14.20;99.90
14908;DHT22;7545;52.092;7.006;2022-10-31T09:03:19;14.20;99.90
14908;DHT22;7545;52.092;7.006;2022-10-31T09:05:45;14.30;99.90
14908;DHT22;7545;52.092;7.006;2022-10-31T09:08:12;14.30;99.90
14908;DHT22;7545;52.092;7.006;2022-10-31T09:10:38;14.40;99.90
14908;DHT22;7545;52.092;7.006;2022-10-31T09:13:10;14.40;99.90
14908;DHT22;7545;52.092;7.006;2022-10-31T09:15:38;14.50;99.90
14908;DHT22;7545;52.092;7.006;2022-10-31T09:18:08;14.60;99.90
14908;DHT22;7545;52.092;7.006;2022-10-31T09:20:35;14.60;99.90
14908;DHT22;7545;52.092;7.006;2022-10-31T09:23:07;14.70;99.90
14908;DHT22;7545;52.092;7.006;2022-10-31T09:25:34;14.80;99.90
14908;DHT22;7545;52.092;7.006;2022-10-31T09:28:01;14.90;99.90
14908;DHT22;7545;52.092;7.006;2022-10-31T09:30:29;14.90;99.90
14908;DHT22;7545;52.092;7.006;2022-10-31T09:32:59;15.00;99.90
14908;DHT22;7545;52.092;7.006;2022-10-31T09:35:25;15.00;99.90
14908;DHT22;7545;52.092;7.006;2022-10-31T09:38:15;15.10;99.90
14908;DHT22;7545;52.092;7.006;2022-10-31T09:43:30;15.20;99.90
14908;DHT22;7545;52.092;7.006;2022-10-31T09:46:14;15.30;99.90
14908;DHT22;7545;52.092;7.006;2022-10-31T09:49:12;15.40;99.90
14908;DHT22;7545;52.092;7.006;2022-10-31T09:51:54;15.50;99.90
14908;DHT22;7545;52.092;7.006;2022-10-31T09:57:10;15.60;99.90
14908;DHT22;7545;52.092;7.006;2022-10-31T09:59:39;15.70;99.90
14908;DHT22;7545;52.092;7.006;2022-10-31T10:02:37;15.80;99.90
14908;DHT22;7545;52.092;7.006;2022-10-31T10:05:05;15.90;99.90
14908;DHT22;7545;52.092;7.006;2022-10-31T10:07:42;15.90;99.90
14908;DHT22;7545;52.092;7.006;2022-10-31T10:16:12;16.20;99.90
14908;DHT22;7545;52.092;7.006;2022-10-31T10:27:27;16.40;99.90
14908;DHT22;7545;52.092;7.006;2022-10-31T10:32:59;16.50;99.90
14908;DHT22;7545;52.092;7.006;2022-10-31T10:35:33;16.50;99.90
14908;DHT22;7545;52.092;7.006;2022-10-31T10:38:11;16.60;99.90
14908;DHT22;7545;52.092;7.006;2022-10-31T10:40:37;16.60;99.90
14908;DHT22;7545;52.092;7.006;2022-10-31T10:49:16;16.70;99.90
14908;DHT22;7545;52.092;7.006;2022-10-31T10:51:58;16.80;99.90
14908;DHT22;7545;52.092;7.006;2022-10-31T10:59:27;16.90;99.90
14908;DHT22;7545;52.092;7.006;2022-10-31T11:01:54;16.90;99.90
14908;DHT22;7545;52.092;7.006;2022-10-31T11:04:33;17.00;99.90
14908;DHT22;7545;52.092;7.006;2022-10-31T11:09:26;17.10;99.90
14908;DHT22;7545;52.092;7.006;2022-10-31T11:11:52;17.10;99.90
14908;DHT22;7545;52.092;7.006;2022-10-31T11:14:19;17.10;99.90
14908;DHT22;7545;52.092;7.006;2022-10-31T11:16:49;17.20;99.90
14908;DHT22;7545;52.092;7.006;2022-10-31T11:19:25;17.20;99.90
14908;DHT22;7545;52.092;7.006;2022-10-31T11:21:54;17.30;99.90
14908;DHT22;7545;52.092;7.006;2022-10-31T11:24:22;17.30;99.90
14908;DHT22;7545;52.092;7.006;2022-10-31T11:26:50;17.30;99.90
14908;DHT22;7545;52.092;7.006;2022-10-31T11:29:20;17.40;99.90
14908;DHT22;7545;52.092;7.006;2022-10-31T11:31:47;17.40;99.90
14908;DHT22;7545;52.092;7.006;2022-10-31T11:34:21;17.50;99.90
14908;DHT22;7545;52.092;7.006;2022-10-31T11:36:49;17.50;99.90
14908;DHT22;7545;52.092;7.006;2022-10-31T11:39:18;17.50;99.90
14908;DHT22;7545;52.092;7.006;2022-10-31T11:41:45;17.50;99.90
14908;DHT22;7545;52.092;7.006;2022-10-31T11:44:24;17.50;99.90
14908;DHT22;7545;52.092;7.006;2022-10-31T11:46:54;17.50;99.90
14908;DHT22;7545;52.092;7.006;2022-10-31T11:51:54;17.60;99.90
14908;DHT22;7545;52.092;7.006;2022-10-31T11:54:28;17.60;99.90
14908;DHT22;7545;52.092;7.006;2022-10-31T11:56:54;17.60;99.90
14908;DHT22;7545;52.092;7.006;2022-10-31T12:01:52;17.50;99.90
14908;DHT22;7545;52.092;7.006;2022-10-31T12:04:18;17.60;99.90
14908;DHT22;7545;52.092;7.006;2022-10-31T12:06:48;17.50;99.90
14908;DHT22;7545;52.092;7.006;2022-10-31T12:09:23;17.50;99.90
14908;DHT22;7545;52.092;7.006;2022-10-31T12:17:38;17.60;99.90
14908;DHT22;7545;52.092;7.006;2022-10-31T12:39:44;17.50;99.90
14908;DHT22;7545;52.092;7.006;2022-10-31T12:44:49;17.50;99.90
14908;DHT22;7545;52.092;7.006;2022-10-31T12:53:20;17.50;99.90
14908;DHT22;7545;52.092;7.006;2022-10-31T12:58:33;17.40;99.90
14908;DHT22;7545;52.092;7.006;2022-10-31T13:01:14;17.50;99.90
14908;DHT22;7545;52.092;7.006;2022-10-31T13:06:25;17.50;99.90
14908;DHT22;7545;52.092;7.006;2022-10-31T13:08:55;17.50;99.90
14908;DHT22;7545;52.092;7.006;2022-10-31T13:11:26;17.50;99.90
14908;DHT22;7545;52.092;7.006;2022-10-31T13:13:56;17.50;99.90
14908;DHT22;7545;52.092;7.006;2022-10-31T13:16:25;17.50;99.90
14908;DHT22;7545;52.092;7.006;2022-10-31T13:19:10;17.50;99.90
14908;DHT22;7545;52.092;7.006;2022-10-31T13:24:23;17.50;99.90
14908;DHT22;7545;52.092;7.006;2022-10-31T13:26:57;17.50;99.90
14908;DHT22;7545;52.092;7.006;2022-10-31T13:29:33;17.50;99.90
14908;DHT22;7545;52.092;7.006;2022-10-31T13:32:06;17.50;99.90
14908;DHT22;7545;52.092;7.006;2022-10-31T13:34:40;17.40;99.90
14908;DHT22;7545;52.092;7.006;2022-10-31T13:45:29;17.40;99.90
14908;DHT22;7545;52.092;7.006;2022-10-31T13:50:42;17.40;99.90
14908;DHT22;7545;52.092;7.006;2022-10-31T13:53:20;17.40;99.90
14908;DHT22;7545;52.092;7.006;2022-10-31T13:58:26;17.30;99.90
14908;DHT22;7545;52.092;7.006;2022-10-31T14:03:40;17.30;99.90
14908;DHT22;7545;52.092;7.006;2022-10-31T14:06:08;17.30;99.90
14908;DHT22;7545;52.092;7.006;2022-10-31T14:08:37;17.30;99.90
14908;DHT22;7545;52.092;7.006;2022-10-31T14:11:07;17.30;99.90
14908;DHT22;7545;52.092;7.006;2022-10-31T14:13:44;17.20;99.90
14908;DHT22;7545;52.092;7.006;2022-10-31T14:16:25;17.30;99.90
14908;DHT22;7545;52.092;7.006;2022-10-31T14:18:59;17.20;99.90
14908;DHT22;7545;52.092;7.006;2022-10-31T14:23:52;17.20;99.90
14908;DHT22;7545;52.092;7.006;2022-10-31T14:34:36;17.20;99.90
14908;DHT22;7545;52.092;7.006;2022-10-31T14:48:38;17.20;99.90
14908;DHT22;7545;52.092;7.006;2022-10-31T14:51:29;17.10;99.90
14908;DHT22;7545;52.092;7.006;2022-10-31T14:53:56;17.10;99.90
14908;DHT22;7545;52.092;7.006;2022-10-31T14:56:26;17.10;99.90
14908;DHT22;7545;52.092;7.006;2022-10-31T14:58:55;17.10;99.90
14908;DHT22;7545;52.092;7.006;2022-10-31T15:03:50;17.10;99.90
14908;DHT22;7545;52.092;7.006;2022-10-31T15:06:19;17.10;99.90
14908;DHT22;7545;52.092;7.006;2022-10-31T15:08:48;17.10;99.90
14908;DHT22;7545;52.092;7.006;2022-10-31T15:11:23;17.10;99.90
14908;DHT22;7545;52.092;7.006;2022-10-31T15:13:56;17.10;99.90
14908;DHT22;7545;52.092;7.006;2022-10-31T15:18:58;17.10;99.90
14908;DHT22;7545;52.092;7.006;2022-10-31T15:21:26;17.10;99.90
14908;DHT22;7545;52.092;7.006;2022-10-31T15:23:58;17.10;99.90
14908;DHT22;7545;52.092;7.006;2022-10-31T15:26:40;17.10;99.90
14908;DHT22;7545;52.092;7.006;2022-10-31T15:29:12;17.10;99.90
14908;DHT22;7545;52.092;7.006;2022-10-31T15:31:38;17.10;99.90
14908;DHT22;7545;52.092;7.006;2022-10-31T15:34:16;17.10;99.90
14908;DHT22;7545;52.092;7.006;2022-10-31T15:36:48;17.10;99.90
14908;DHT22;7545;52.092;7.006;2022-10-31T15:39:14;17.10;99.90
14908;DHT22;7545;52.092;7.006;2022-10-31T15:41:53;17.10;99.90
14908;DHT22;7545;52.092;7.006;2022-10-31T15:44:32;17.10;99.90
14908;DHT22;7545;52.092;7.006;2022-10-31T15:47:06;17.00;99.90
14908;DHT22;7545;52.092;7.006;2022-10-31T15:49:42;17.00;99.90
14908;DHT22;7545;52.092;7.006;2022-10-31T15:52:14;17.00;99.90
14908;DHT22;7545;52.092;7.006;2022-10-31T15:54:55;17.00;99.90
14908;DHT22;7545;52.092;7.006;2022-10-31T15:57:23;17.00;99.90
14908;DHT22;7545;52.092;7.006;2022-10-31T15:59:51;17.00;99.90
14908;DHT22;7545;52.092;7.006;2022-10-31T16:02:22;17.00;99.90
14908;DHT22;7545;52.092;7.006;2022-10-31T16:05:00;17.00;99.90
14908;DHT22;7545;52.092;7.006;2022-10-31T16:07:27;16.90;99.90
14908;DHT22;7545;52.092;7.006;2022-10-31T16:09:58;16.90;99.90
14908;DHT22;7545;52.092;7.006;2022-10-31T16:12:31;16.90;99.90
14908;DHT22;7545;52.092;7.006;2022-10-31T16:14:57;16.90;99.90
14908;DHT22;7545;52.092;7.006;2022-10-31T16:17:26;16.80;99.90
14908;DHT22;7545;52.092;7.006;2022-10-31T16:20:01;16.80;99.90
14908;DHT22;7545;52.092;7.006;2022-10-31T16:22:31;16.80;99.90
14908;DHT22;7545;52.092;7.006;2022-10-31T16:25:28;16.80;99.90
14908;DHT22;7545;52.092;7.006;2022-10-31T16:27:59;16.80;99.90
14908;DHT22;7545;52.092;7.006;2022-10-31T16:30:41;16.70;99.90
14908;DHT22;7545;52.092;7.006;2022-10-31T16:35:57;16.70;99.90
14908;DHT22;7545;52.092;7.006;2022-10-31T16:38:23;16.70;99.90
14908;DHT22;7545;52.092;7.006;2022-10-31T16:40:49;16.70;99.90
14908;DHT22;7545;52.092;7.006;2022-10-31T16:43:17;16.60;99.90
14908;DHT22;7545;52.092;7.006;2022-10-31T16:45:45;16.60;99.90
14908;DHT22;7545;52.092;7.006;2022-10-31T16:48:13;16.60;99.90
14908;DHT22;7545;52.092;7.006;2022-10-31T16:50:41;16.60;99.90
14908;DHT22;7545;52.092;7.006;2022-10-31T16:53:07;16.60;99.90
14908;DHT22;7545;52.092;7.006;2022-10-31T16:55:33;16.60;99.90
14908;DHT22;7545;52.092;7.006;2022-10-31T16:58:01;16.50;99.90
14908;DHT22;7545;52.092;7.006;2022-10-31T17:00:27;16.50;99.90
14908;DHT22;7545;52.092;7.006;2022-10-31T17:02:55;16.50;99.90
14908;DHT22;7545;52.092;7.006;2022-10-31T17:05:22;16.50;99.90
14908;DHT22;7545;52.092;7.006;2022-10-31T17:07:55;16.50;99.90
14908;DHT22;7545;52.092;7.006;2022-10-31T17:10:21;16.50;99.90
14908;DHT22;7545;52.092;7.006;2022-10-31T17:12:47;16.50;99.90
14908;DHT22;7545;52.092;7.006;2022-10-31T17:15:17;16.50;99.90
14908;DHT22;7545;52.092;7.006;2022-10-31T17:17:43;16.50;99.90
14908;DHT22;7545;52.092;7.006;2022-10-31T17:20:29;16.40;99.90
14908;DHT22;7545;52.092;7.006;2022-10-31T17:22:55;16.40;99.90
14908;DHT22;7545;52.092;7.006;2022-10-31T17:25:24;16.40;99.90
14908;DHT22;7545;52.092;7.006;2022-10-31T17:27:50;16.40;99.90
14908;DHT22;7545;52.092;7.006;2022-10-31T17:30:18;16.40;99.90
14908;DHT22;7545;52.092;7.006;2022-10-31T17:32:45;16.40;99.90
14908;DHT22;7545;52.092;7.006;2022-10-31T17:35:11;16.40;99.90
14908;DHT22;7545;52.092;7.006;2022-10-31T17:37:38;16.40;99.90
14908;DHT22;7545;52.092;7.006;2022-10-31T17:40:04;16.40;99.90
14908;DHT22;7545;52.092;7.006;2022-10-31T17:42:30;16.40;99.90
14908;DHT22;7545;52.092;7.006;2022-10-31T17:44:56;16.40;99.90
14908;DHT22;7545;52.092;7.006;2022-10-31T17:47:21;16.40;99.90
14908;DHT22;7545;52.092;7.006;2022-10-31T17:49:47;16.40;99.90
14908;DHT22;7545;52.092;7.006;2022-10-31T17:52:13;16.40;99.90
14908;DHT22;7545;52.092;7.006;2022-10-31T17:54:38;16.40;99.90
14908;DHT22;7545;52.092;7.006;2022-10-31T17:57:04;16.40;99.90
14908;DHT22;7545;52.092;7.006;2022-10-31T17:59:29;16.40;99.90
14908;DHT22;7545;52.092;7.006;2022-10-31T18:01:56;16.40;99.90
14908;DHT22;7545;52.092;7.006;2022-10-31T18:04:21;16.40;99.90
14908;DHT22;7545;52.092;7.006;2022-10-31T18:06:47;16.40;99.90
14908;DHT22;7545;52.092;7.006;2022-10-31T18:09:15;16.40;99.90
14908;DHT22;7545;52.092;7.006;2022-10-31T18:11:41;16.40;99.90
14908;DHT22;7545;52.092;7.006;2022-10-31T18:14:08;16.40;99.90
14908;DHT22;7545;52.092;7.006;2022-10-31T18:16:34;16.30;99.90
14908;DHT22;7545;52.092;7.006;2022-10-31T18:18:59;16.40;99.90
14908;DHT22;7545;52.092;7.006;2022-10-31T18:21:27;16.40;99.90
14908;DHT22;7545;52.092;7.006;2022-10-31T18:23:58;16.40;99.90
14908;DHT22;7545;52.092;7.006;2022-10-31T18:26:25;16.30;99.90
14908;DHT22;7545;52.092;7.006;2022-10-31T18:28:51;16.30;99.90
14908;DHT22;7545;52.092;7.006;2022-10-31T18:31:17;16.30;99.90
14908;DHT22;7545;52.092;7.006;2022-10-31T18:33:43;16.30;99.90
14908;DHT22;7545;52.092;7.006;2022-10-31T18:36:09;16.30;99.90
14908;DHT22;7545;52.092;7.006;2022-10-31T18:38:40;16.30;99.90
14908;DHT22;7545;52.092;7.006;2022-10-31T18:41:07;16.40;99.90
14908;DHT22;7545;52.092;7.006;2022-10-31T18:43:33;16.30;99.90
14908;DHT22;7545;52.092;7.006;2022-10-31T18:46:01;16.30;99.90
14908;DHT22;7545;52.092;7.006;2022-10-31T18:48:27;16.30;99.90